createdAt,value
2018-12-17T00:01:14.823Z,85.10
2018-12-17T00:03:46.369Z,85.60
2018-12-17T00:06:17.822Z,84.50
2018-12-17T00:08:47.482Z,84.20
2018-12-17T00:11:17.026Z,83.70
2018-12-17T00:13:46.550Z,83.90
2018-12-17T00:16:16.314Z,83.90
2018-12-17T00:18:45.871Z,84.10
2018-12-17T00:21:15.391Z,84.60
2018-12-17T00:23:49.856Z,84.30
2018-12-17T00:26:19.357Z,84.00
2018-12-17T00:28:54.906Z,83.80
2018-12-17T00:31:24.602Z,83.90
2018-12-17T00:33:54.134Z,83.40
2018-12-17T00:36:23.657Z,83.70
2018-12-17T00:38:53.293Z,84.20
2018-12-17T00:41:22.823Z,84.30
2018-12-17T00:43:52.429Z,85.10
2018-12-17T00:46:22.020Z,83.80
2018-12-17T00:48:56.594Z,82.60
2018-12-17T00:51:31.021Z,82.20
2018-12-17T00:54:00.600Z,82.60
2018-12-17T00:56:30.054Z,82.70
2018-12-17T00:58:59.547Z,82.90
2018-12-17T01:01:29.118Z,83.20
2018-12-17T01:03:58.641Z,84.00
2018-12-17T01:06:28.178Z,84.20
2018-12-17T01:08:57.670Z,85.30
2018-12-17T01:11:27.295Z,86.00
2018-12-17T01:13:56.850Z,86.50
2018-12-17T01:16:26.584Z,86.80
2018-12-17T01:18:56.869Z,86.40
2018-12-17T01:21:26.378Z,85.90
2018-12-17T01:23:55.986Z,86.90
2018-12-17T01:26:26.610Z,86.70
2018-12-17T01:28:56.158Z,87.20
2018-12-17T01:31:25.706Z,87.30
2018-12-17T01:33:55.265Z,87.00
2018-12-17T01:36:24.778Z,86.50
2018-12-17T01:38:54.305Z,86.40
2018-12-17T01:41:24.521Z,87.10
2018-12-17T01:43:58.987Z,86.40
2018-12-17T01:46:28.497Z,85.60
2018-12-17T01:48:58.203Z,85.60
2018-12-17T01:51:28.290Z,85.70
2018-12-17T01:53:57.842Z,85.40
2018-12-17T01:56:27.337Z,85.40
2018-12-17T01:58:56.858Z,86.00
2018-12-17T02:01:26.358Z,85.60
2018-12-17T02:03:55.890Z,85.00
2018-12-17T02:06:26.133Z,85.90
2018-12-17T02:08:55.655Z,86.90
2018-12-17T02:11:25.390Z,87.40
2018-12-17T02:13:55.095Z,87.60
2018-12-17T02:16:24.592Z,88.30
2018-12-17T02:18:54.093Z,88.20
2018-12-17T02:21:23.574Z,88.30
2018-12-17T02:23:53.645Z,88.80
2018-12-17T02:26:23.174Z,89.30
2018-12-17T02:28:52.770Z,89.40
2018-12-17T02:31:22.451Z,89.40
2018-12-17T02:33:56.982Z,89.40
2018-12-17T02:36:31.384Z,89.20
2018-12-17T02:39:00.924Z,89.20
2018-12-17T02:41:32.382Z,89.20
2018-12-17T02:44:02.018Z,88.90
2018-12-17T02:46:31.470Z,89.50
2018-12-17T02:49:05.978Z,88.70
2018-12-17T02:51:37.924Z,88.70
2018-12-17T02:54:07.410Z,88.60
2018-12-17T02:56:37.183Z,89.20
2018-12-17T02:59:07.378Z,90.00
2018-12-17T03:01:36.902Z,90.00
2018-12-17T03:04:06.414Z,90.50
2018-12-17T03:06:35.969Z,90.30
2018-12-17T03:09:06.650Z,90.50
2018-12-17T03:11:43.021Z,90.70
2018-12-17T03:14:12.534Z,90.60
2018-12-17T03:16:42.050Z,90.40
2018-12-17T03:19:11.555Z,90.30
2018-12-17T03:21:46.022Z,90.30
2018-12-17T03:24:15.525Z,90.20
2018-12-17T03:26:45.025Z,90.00
2018-12-17T03:29:14.644Z,89.00
2018-12-17T03:31:44.410Z,88.10
2018-12-17T03:34:14.067Z,87.60
2018-12-17T03:36:43.614Z,87.30
2018-12-17T03:39:13.134Z,87.10
2018-12-17T03:41:42.662Z,86.70
2018-12-17T03:44:12.256Z,86.60
2018-12-17T03:46:41.738Z,85.90
2018-12-17T03:49:11.248Z,85.80
2018-12-17T03:51:45.782Z,85.80
2018-12-17T03:54:15.570Z,85.70
2018-12-17T03:56:45.077Z,85.80
2018-12-17T03:59:14.646Z,85.80
2018-12-17T04:01:44.161Z,86.10
2018-12-17T04:04:18.782Z,86.20
2018-12-17T04:06:48.302Z,86.60
2018-12-17T04:09:18.746Z,86.90
2018-12-17T04:11:48.263Z,87.00
2018-12-17T04:14:22.846Z,86.20
2018-12-17T04:16:52.358Z,86.30
2018-12-17T04:19:26.890Z,86.30
2018-12-17T04:21:57.441Z,86.70
2018-12-17T04:24:26.954Z,86.70
2018-12-17T04:27:01.447Z,86.70
2018-12-17T04:29:31.010Z,87.20
2018-12-17T04:32:01.578Z,87.50
2018-12-17T04:34:31.170Z,88.00
2018-12-17T04:37:00.725Z,87.80
2018-12-17T04:39:30.245Z,87.40
2018-12-17T04:41:59.897Z,87.10
2018-12-17T04:44:29.522Z,87.00
2018-12-17T04:46:59.676Z,86.90
2018-12-17T04:49:29.263Z,86.80
2018-12-17T04:52:03.936Z,87.20
2018-12-17T04:54:33.609Z,87.50
2018-12-17T04:57:03.158Z,87.00
2018-12-17T04:59:32.626Z,86.80
2018-12-17T05:02:02.181Z,86.60
2018-12-17T05:04:31.738Z,86.30
2018-12-17T05:07:01.276Z,85.40
2018-12-17T05:09:31.502Z,84.80
2018-12-17T05:12:01.038Z,84.70
2018-12-17T05:14:30.549Z,84.20
2018-12-17T05:17:00.135Z,84.30
2018-12-17T05:19:29.793Z,84.80
2018-12-17T05:22:04.246Z,85.90
2018-12-17T05:24:38.769Z,86.50
2018-12-17T05:27:13.334Z,87.10
2018-12-17T05:29:42.870Z,86.50
2018-12-17T05:32:12.374Z,85.40
2018-12-17T05:34:41.926Z,85.10
2018-12-17T05:37:11.435Z,85.50
2018-12-17T05:39:40.948Z,85.80
2018-12-17T05:42:10.385Z,85.40
2018-12-17T05:44:39.803Z,85.00
2018-12-17T05:47:09.394Z,84.20
2018-12-17T05:49:38.895Z,84.40
2018-12-17T05:52:08.416Z,84.90
2018-12-17T05:54:37.821Z,85.10
2018-12-17T05:57:12.488Z,84.90
2018-12-17T05:59:42.247Z,84.10
2018-12-17T06:02:11.838Z,84.20
2018-12-17T06:04:41.287Z,84.20
2018-12-17T06:07:10.702Z,83.60
2018-12-17T06:09:45.206Z,82.60
2018-12-17T06:12:14.800Z,82.60
2018-12-17T06:14:44.224Z,83.50
2018-12-17T06:17:13.753Z,84.10
2018-12-17T06:19:43.348Z,83.70
2018-12-17T06:22:12.850Z,83.90
2018-12-17T06:24:42.441Z,84.10
2018-12-17T06:27:11.933Z,84.40
2018-12-17T06:29:41.629Z,84.50
2018-12-17T06:32:11.161Z,84.60
2018-12-17T06:34:40.585Z,84.30
2018-12-17T06:37:10.101Z,84.30
2018-12-17T06:39:44.754Z,85.00
2018-12-17T06:42:19.178Z,85.60
2018-12-17T06:44:49.358Z,85.80
2018-12-17T06:47:23.924Z,85.50
2018-12-17T06:49:54.191Z,85.30
2018-12-17T06:52:28.790Z,85.40
2018-12-17T06:54:58.319Z,85.80
2018-12-17T06:57:27.917Z,86.10
2018-12-17T06:59:57.622Z,85.80
2018-12-17T07:02:27.222Z,85.40
2018-12-17T07:05:01.674Z,85.70
2018-12-17T07:07:36.234Z,85.40
2018-12-17T07:10:06.831Z,84.70
2018-12-17T07:12:41.231Z,83.90
2018-12-17T07:15:10.754Z,83.60
2018-12-17T07:17:40.257Z,84.20
2018-12-17T07:20:09.794Z,85.00
2018-12-17T07:22:44.355Z,85.00
2018-12-17T07:25:13.958Z,85.20
2018-12-17T07:27:43.525Z,85.00
2018-12-17T07:30:13.392Z,84.60
2018-12-17T07:32:42.930Z,84.50
2018-12-17T07:35:12.531Z,84.50
2018-12-17T07:37:42.118Z,85.40
2018-12-17T07:40:16.544Z,85.70
2018-12-17T07:42:50.966Z,85.70
2018-12-17T07:45:20.478Z,85.60
2018-12-17T07:47:50.086Z,85.70
2018-12-17T07:50:24.626Z,85.30
2018-12-17T07:52:54.171Z,84.90
2018-12-17T07:55:23.698Z,85.60
2018-12-17T07:57:53.199Z,86.00
2018-12-17T08:00:22.744Z,86.00
2018-12-17T08:02:57.177Z,85.50
2018-12-17T08:05:26.716Z,84.70
2018-12-17T08:07:56.217Z,85.20
2018-12-17T08:10:25.728Z,85.80
2018-12-17T08:12:55.240Z,86.10
2018-12-17T08:15:24.778Z,86.20
2018-12-17T08:18:33.271Z,86.70
2018-12-17T08:21:02.788Z,86.20
2018-12-17T08:23:32.330Z,86.20
2018-12-17T08:26:01.808Z,86.00
2018-12-17T08:28:31.258Z,86.10
2018-12-17T08:31:00.798Z,85.80
2018-12-17T08:33:30.296Z,85.70
2018-12-17T08:35:59.881Z,86.80
2018-12-17T08:38:34.299Z,86.20
2018-12-17T08:41:03.826Z,86.00
2018-12-17T08:43:33.499Z,85.20
2018-12-17T08:46:07.926Z,84.30
2018-12-17T08:48:37.444Z,83.90
2018-12-17T08:51:06.945Z,84.00
2018-12-17T08:53:36.479Z,83.30
2018-12-17T08:56:06.090Z,83.20
2018-12-17T08:58:40.598Z,83.40
2018-12-17T09:01:10.250Z,82.60
2018-12-17T09:03:39.782Z,82.50
2018-12-17T09:06:09.392Z,82.80
2018-12-17T09:08:38.906Z,83.00
2018-12-17T09:11:08.517Z,83.10
2018-12-17T09:13:39.054Z,82.60
2018-12-17T09:16:13.474Z,81.30
2018-12-17T09:18:43.019Z,80.80
2018-12-17T09:21:12.642Z,80.70
2018-12-17T09:23:42.105Z,80.30
2018-12-17T09:26:11.586Z,79.60
2018-12-17T09:28:41.114Z,79.70
2018-12-17T09:31:10.642Z,79.60
2018-12-17T09:33:40.193Z,80.00
2018-12-17T09:36:09.742Z,79.50
2018-12-17T09:38:39.244Z,79.10
2018-12-17T09:41:08.737Z,79.80
2018-12-17T09:43:43.185Z,80.10
2018-12-17T09:46:12.698Z,80.00
2018-12-17T09:48:42.237Z,79.80
2018-12-17T09:51:11.842Z,79.30
2018-12-17T09:53:41.374Z,78.40
2018-12-17T09:56:11.098Z,78.00
2018-12-17T09:58:40.694Z,77.60
2018-12-17T10:01:10.215Z,76.70
2018-12-17T10:03:39.630Z,76.20
2018-12-17T10:06:09.237Z,75.30
2018-12-17T10:08:38.990Z,75.30
2018-12-17T10:11:08.506Z,74.20
2018-12-17T10:13:38.061Z,74.30
2018-12-17T10:16:07.738Z,74.00
2018-12-17T10:18:37.298Z,73.20
2018-12-17T10:21:06.810Z,73.40
2018-12-17T10:23:36.430Z,74.00
2018-12-17T10:26:06.042Z,74.40
2018-12-17T10:28:35.559Z,74.40
2018-12-17T10:31:05.090Z,74.10
2018-12-17T10:33:34.586Z,74.60
2018-12-17T10:36:08.990Z,74.40
2018-12-17T10:38:38.482Z,74.60
2018-12-17T10:41:07.986Z,74.50
2018-12-17T10:43:39.466Z,75.40
2018-12-17T10:46:14.057Z,76.30
2018-12-17T10:48:43.575Z,77.30
2018-12-17T10:51:13.094Z,77.20
2018-12-17T10:53:42.718Z,76.40
2018-12-17T10:56:12.138Z,75.80
2018-12-17T10:58:41.639Z,73.90
2018-12-17T11:01:21.443Z,72.70
2018-12-17T11:03:58.042Z,72.40
2018-12-17T11:06:27.574Z,71.50
2018-12-17T11:08:57.117Z,70.90
2018-12-17T11:11:26.634Z,70.50
2018-12-17T11:14:01.167Z,69.50
2018-12-17T11:16:30.743Z,69.00
2018-12-17T11:19:00.266Z,68.50
2018-12-17T11:21:29.778Z,67.10
2018-12-17T11:23:59.284Z,66.10
2018-12-17T11:26:28.807Z,64.20
2018-12-17T11:28:58.315Z,62.50
2018-12-17T11:31:27.958Z,61.60
2018-12-17T11:33:57.477Z,61.40
2018-12-17T11:36:27.030Z,60.90
2018-12-17T11:38:56.547Z,60.60
2018-12-17T11:41:26.100Z,60.10
2018-12-17T11:43:55.614Z,59.90
2018-12-17T11:46:25.186Z,60.00
2018-12-17T11:48:54.753Z,60.80
2018-12-17T11:51:24.290Z,61.20
2018-12-17T11:53:53.817Z,61.30
2018-12-17T11:56:32.677Z,61.30
2018-12-17T11:59:07.143Z,62.00
2018-12-17T12:01:38.779Z,62.60
2018-12-17T12:04:08.350Z,64.10
2018-12-17T12:06:38.615Z,64.60
2018-12-17T12:09:18.536Z,65.10
2018-12-17T12:11:48.177Z,64.10
2018-12-17T12:14:17.784Z,64.80
2018-12-17T12:16:47.301Z,65.10
2018-12-17T12:19:16.718Z,65.30
2018-12-17T12:21:47.249Z,65.60
2018-12-17T12:24:17.114Z,67.00
2018-12-17T12:26:51.519Z,68.10
2018-12-17T12:29:21.037Z,69.00
2018-12-17T12:31:50.539Z,68.00
2018-12-17T12:34:20.122Z,68.20
2018-12-17T12:36:49.618Z,68.50
2018-12-17T12:39:24.055Z,67.80
2018-12-17T12:41:53.563Z,67.90
2018-12-17T12:44:23.178Z,67.50
2018-12-17T12:46:52.751Z,68.30
2018-12-17T12:49:22.746Z,68.40
2018-12-17T12:51:52.752Z,69.20
2018-12-17T12:54:22.418Z,69.40
2018-12-17T12:56:56.877Z,70.30
2018-12-17T12:59:26.429Z,71.50
2018-12-17T13:02:00.843Z,71.80
2018-12-17T13:04:30.375Z,71.20
2018-12-17T13:07:05.022Z,71.40
2018-12-17T13:09:34.607Z,71.00
2018-12-17T13:12:04.338Z,70.90
2018-12-17T13:14:33.902Z,71.00
2018-12-17T13:17:13.863Z,71.70
2018-12-17T13:19:43.375Z,71.40
2018-12-17T13:22:14.393Z,71.60
2018-12-17T13:24:43.837Z,70.90
2018-12-17T13:27:18.314Z,71.60
2018-12-17T13:29:47.761Z,70.70
2018-12-17T13:32:17.317Z,71.40
2018-12-17T13:34:46.890Z,70.90
2018-12-17T13:37:16.411Z,70.90
2018-12-17T13:39:46.002Z,71.00
2018-12-17T13:42:15.622Z,70.90
2018-12-17T13:44:45.154Z,71.60
2018-12-17T13:47:14.706Z,72.80
2018-12-17T13:49:49.110Z,73.40
2018-12-17T13:52:24.035Z,72.70
2018-12-17T13:54:53.698Z,73.40
2018-12-17T13:57:23.310Z,73.40
2018-12-17T13:59:57.821Z,74.30
2018-12-17T14:02:27.369Z,74.00
2018-12-17T14:04:57.393Z,73.70
2018-12-17T14:07:26.892Z,73.50
2018-12-17T14:10:01.834Z,73.50
2018-12-17T14:12:32.694Z,74.20
2018-12-17T14:15:02.242Z,74.50
2018-12-17T14:17:35.845Z,74.10
2018-12-17T14:20:15.998Z,74.10
2018-12-17T14:22:51.031Z,74.30
2018-12-17T14:25:25.818Z,74.70
2018-12-17T14:28:00.310Z,74.80
2018-12-17T14:30:30.042Z,75.70
2018-12-17T14:33:04.662Z,76.60
2018-12-17T14:35:34.161Z,77.60
2018-12-17T14:38:08.584Z,77.20
2018-12-17T14:40:38.053Z,76.50
2018-12-17T14:43:07.628Z,75.80
2018-12-17T14:45:37.118Z,75.60
2018-12-17T14:48:06.762Z,76.10
2018-12-17T14:50:36.216Z,76.40
2018-12-17T14:53:10.712Z,76.60
2018-12-17T14:55:45.302Z,77.30
2018-12-17T14:58:14.802Z,77.90
2018-12-17T15:00:44.370Z,78.40
2018-12-17T15:03:18.845Z,78.40
2018-12-17T15:05:48.335Z,77.90
2018-12-17T15:08:17.885Z,76.70
2018-12-17T15:10:52.318Z,75.30
2018-12-17T15:13:21.903Z,74.80
2018-12-17T15:15:56.374Z,75.30
2018-12-17T15:18:25.894Z,74.90
2018-12-17T15:20:55.393Z,73.60
2018-12-17T15:23:25.016Z,73.90
2018-12-17T15:25:54.579Z,74.50
2018-12-17T15:28:29.059Z,74.10
2018-12-17T15:30:58.718Z,73.30
2018-12-17T15:33:28.314Z,72.50
2018-12-17T15:35:58.016Z,72.30
2018-12-17T15:38:28.645Z,72.00
2018-12-17T15:40:58.346Z,72.30
2018-12-17T15:43:27.898Z,71.90
2018-12-17T15:45:57.573Z,73.10
2018-12-17T15:48:27.106Z,73.90
2018-12-17T15:50:57.110Z,74.40
2018-12-17T15:53:26.630Z,75.10
2018-12-17T15:55:56.813Z,75.00
2018-12-17T15:58:31.223Z,75.50
2018-12-17T16:01:05.761Z,75.80
2018-12-17T16:03:35.268Z,75.20
2018-12-17T16:06:04.858Z,75.20
2018-12-17T16:08:39.294Z,75.30
2018-12-17T16:11:08.925Z,75.70
2018-12-17T16:13:39.398Z,76.70
2018-12-17T16:16:08.831Z,76.40
2018-12-17T16:18:38.379Z,76.40
2018-12-17T16:21:08.061Z,76.60
2018-12-17T16:23:37.586Z,76.70
2018-12-17T16:26:08.130Z,76.90
2018-12-17T16:28:37.649Z,77.00
2018-12-17T16:31:07.141Z,76.50
2018-12-17T16:33:36.866Z,76.00
2018-12-17T16:36:06.543Z,76.10
2018-12-17T16:38:36.045Z,76.00
2018-12-17T16:41:05.797Z,76.40
2018-12-17T16:43:35.349Z,77.00
2018-12-17T16:46:05.018Z,77.40
2018-12-17T16:48:35.679Z,77.10
2018-12-17T16:51:05.223Z,77.60
2018-12-17T16:53:34.770Z,76.80
2018-12-17T16:56:09.214Z,76.40
2018-12-17T16:58:44.081Z,77.30
2018-12-17T17:01:13.602Z,78.60
2018-12-17T17:03:43.246Z,79.20
2018-12-17T17:06:12.750Z,79.90
2018-12-17T17:08:42.289Z,80.00
2018-12-17T17:11:11.849Z,78.60
2018-12-17T17:13:41.830Z,78.20
2018-12-17T17:16:11.438Z,77.90
2018-12-17T17:18:45.905Z,77.90
2018-12-17T17:21:15.474Z,77.70
2018-12-17T17:23:50.036Z,78.10
2018-12-17T17:26:19.568Z,76.90
2018-12-17T17:28:54.195Z,76.50
2018-12-17T17:31:24.405Z,76.40
2018-12-17T17:33:53.961Z,77.00
2018-12-17T17:36:23.519Z,77.50
2018-12-17T17:38:53.021Z,77.50
2018-12-17T17:41:22.575Z,78.10
2018-12-17T17:43:57.017Z,78.20
2018-12-17T17:46:26.649Z,78.60
2018-12-17T17:49:01.270Z,78.40
2018-12-17T17:51:30.972Z,78.90
2018-12-17T17:54:00.553Z,79.00
2018-12-17T17:56:30.126Z,78.90
2018-12-17T17:58:59.759Z,79.20
2018-12-17T18:01:29.329Z,79.10
2018-12-17T18:03:59.622Z,79.20
2018-12-17T18:06:29.150Z,79.10
2018-12-17T18:08:58.847Z,79.00
2018-12-17T18:11:28.374Z,79.10
2018-12-17T18:13:58.820Z,79.30
2018-12-17T18:16:28.422Z,79.90
2018-12-17T18:18:57.926Z,79.90
2018-12-17T18:21:32.450Z,80.20
2018-12-17T18:24:02.611Z,80.40
2018-12-17T18:26:32.149Z,80.60
2018-12-17T18:29:06.677Z,80.80
2018-12-17T18:31:36.294Z,80.70
2018-12-17T18:34:06.090Z,80.80
2018-12-17T18:36:35.678Z,81.20
2018-12-17T18:39:07.678Z,81.20
2018-12-17T18:41:39.826Z,82.90
2018-12-17T18:44:09.378Z,84.10
2018-12-17T18:46:38.953Z,84.70
2018-12-17T18:49:13.338Z,84.40
2018-12-17T18:51:43.172Z,85.10
2018-12-17T18:54:12.661Z,84.70
2018-12-17T18:56:42.163Z,84.30
2018-12-17T18:59:11.683Z,83.70
2018-12-17T19:01:41.096Z,84.00
2018-12-17T19:04:15.505Z,81.90
2018-12-17T19:06:44.997Z,81.20
2018-12-17T19:09:14.849Z,80.80
2018-12-17T19:11:44.473Z,80.00
2018-12-17T19:14:13.994Z,79.70
2018-12-17T19:16:48.437Z,79.80
2018-12-17T19:19:22.922Z,80.50
2018-12-17T19:21:52.460Z,80.10
2018-12-17T19:24:21.911Z,80.80
2018-12-17T19:26:56.399Z,81.20
2018-12-17T19:29:25.899Z,81.40
2018-12-17T19:31:56.209Z,81.10
2018-12-17T19:34:25.765Z,81.60
2018-12-17T19:36:55.279Z,82.40
2018-12-17T19:39:28.678Z,82.30
2018-12-17T19:41:58.478Z,83.90
2018-12-17T19:44:27.978Z,85.30
2018-12-17T19:46:57.390Z,86.60
2018-12-17T19:49:31.869Z,87.20
2018-12-17T19:52:01.445Z,87.80
2018-12-17T19:54:31.490Z,88.50
2018-12-17T19:57:01.038Z,89.00
2018-12-17T19:59:35.486Z,88.90
2018-12-17T20:02:10.953Z,88.50
2018-12-17T20:04:45.390Z,88.30
2018-12-17T20:07:14.908Z,88.30
2018-12-17T20:09:49.413Z,88.20
2018-12-17T20:12:19.998Z,88.90
2018-12-17T20:14:54.526Z,88.40
2018-12-17T20:17:24.129Z,88.60
2018-12-17T20:19:53.653Z,88.70
2018-12-17T20:22:23.214Z,88.90
2018-12-17T20:24:57.726Z,88.50
2018-12-17T20:27:27.274Z,88.40
2018-12-17T20:29:56.785Z,88.30
2018-12-17T20:32:26.310Z,88.10
2018-12-17T20:34:55.822Z,88.50
2018-12-17T20:37:25.375Z,89.60
2018-12-17T20:39:54.894Z,89.00
2018-12-17T20:42:24.417Z,89.20
2018-12-17T20:44:53.922Z,89.40
2018-12-17T20:47:23.540Z,89.60
2018-12-17T20:49:57.950Z,90.20
2018-12-17T20:52:32.883Z,89.90
2018-12-17T20:55:02.397Z,90.00
2018-12-17T20:57:31.917Z,90.10
2018-12-17T21:00:03.699Z,90.30
2018-12-17T21:02:35.174Z,90.30
2018-12-17T21:05:05.573Z,90.30
2018-12-17T21:07:35.162Z,90.30
2018-12-17T21:10:05.848Z,90.10
2018-12-17T21:12:35.366Z,90.10
2018-12-17T21:15:06.433Z,89.40
2018-12-17T21:17:36.054Z,89.80
2018-12-17T21:20:05.865Z,90.00
2018-12-17T21:22:35.426Z,90.10
2018-12-17T21:25:05.785Z,90.00
2018-12-17T21:27:40.185Z,89.50
2018-12-17T21:30:10.154Z,89.70
2018-12-17T21:32:40.110Z,89.50
2018-12-17T21:35:09.621Z,89.40
2018-12-17T21:37:39.130Z,89.60
2018-12-17T21:40:08.810Z,89.70
2018-12-17T21:42:43.310Z,90.00
2018-12-17T21:45:12.819Z,90.00
2018-12-17T21:47:42.353Z,90.00
2018-12-17T21:50:11.986Z,90.10
2018-12-17T21:52:41.601Z,90.00
2018-12-17T21:55:11.182Z,90.00
2018-12-17T21:57:40.689Z,90.10
2018-12-17T22:00:10.379Z,90.30
2018-12-17T22:02:41.862Z,90.40
2018-12-17T22:05:16.614Z,90.40
2018-12-17T22:07:47.910Z,90.70
2018-12-17T22:10:23.233Z,90.70
2018-12-17T22:12:57.630Z,90.90
2018-12-17T22:15:27.158Z,90.90
2018-12-17T22:17:56.719Z,90.90
2018-12-17T22:20:26.506Z,90.90
2018-12-17T22:22:57.153Z,91.10
2018-12-17T22:25:26.702Z,90.90
2018-12-17T22:27:56.209Z,90.90
2018-12-17T22:30:25.822Z,90.80
2018-12-17T22:32:55.550Z,90.60
2018-12-17T22:35:25.234Z,90.90
2018-12-17T22:37:54.797Z,90.40
2018-12-17T22:40:24.498Z,90.30
2018-12-17T22:42:54.062Z,90.40
2018-12-17T22:45:23.599Z,90.40
2018-12-17T22:47:58.090Z,90.50
2018-12-17T22:50:27.662Z,90.50
2018-12-17T22:52:57.222Z,90.70
2018-12-17T22:55:26.733Z,90.90
2018-12-17T22:57:56.310Z,90.60
2018-12-17T23:00:26.093Z,90.60
2018-12-17T23:03:02.408Z,90.80
2018-12-17T23:05:31.850Z,91.10
2018-12-17T23:08:01.794Z,91.10
2018-12-17T23:10:44.094Z,91.10
2018-12-17T23:13:25.254Z,91.00
2018-12-17T23:16:07.783Z,91.00
2018-12-17T23:18:36.395Z,91.10
2018-12-17T23:21:07.882Z,91.30
2018-12-17T23:23:39.348Z,91.40
2018-12-17T23:26:10.483Z,91.20
2018-12-17T23:28:40.142Z,91.20
2018-12-17T23:31:09.750Z,91.30
2018-12-17T23:33:40.418Z,91.40
2018-12-17T23:36:10.026Z,91.50
2018-12-17T23:38:39.530Z,91.60
2018-12-17T23:41:13.998Z,91.50
2018-12-17T23:43:43.498Z,91.30
2018-12-17T23:46:13.022Z,91.40
2018-12-17T23:48:42.514Z,91.40
2018-12-17T23:51:12.030Z,91.40
2018-12-17T23:53:41.518Z,91.20
2018-12-17T23:56:11.014Z,91.10
2018-12-17T23:58:40.634Z,91.10
